Time;durP1;ratioP1;P1;durP2;ratioP2;P2;SDS_P1;SDS_P2;PMS_P1;PMS_P2;Temp;Humidity;BMP_temperature;BMP_pressure;BME280_temperature;BME280_humidity;BME280_pressure;Samples;Min_cycle;Max_cycle;Signal;HPM_P1;HPM_P2
2021/12/11 00:01:48;;;;;;;23.52;19.55;;;;;;;7.35;100.00;101462.95;1735380;82;21122;-84
2021/12/11 00:04:21;;;;;;;21.37;18.25;;;;;;;7.34;100.00;101469.04;1684913;83;21046;-84
2021/12/11 00:06:54;;;;;;;20.48;15.03;;;;;;;7.33;100.00;101454.44;1735522;82;21012;-84
2021/12/11 00:09:32;;;;;;;18.07;16.10;;;;;;;7.29;100.00;101461.48;1712064;83;21826;-84
2021/12/11 00:12:04;;;;;;;21.93;18.82;;;;;;;7.28;100.00;101458.98;1733278;82;21046;-83
2021/12/11 00:14:35;;;;;;;25.62;19.32;;;;;;;7.29;100.00;101469.26;1711396;83;21151;-83
2021/12/11 00:17:03;;;;;;;;;;;;;;;7.32;100.00;101464.41;1734832;82;21038;-82
2021/12/11 00:19:34;;;;;;;25.68;20.00;;;;;;;7.31;100.00;101462.73;1711941;82;20218;-84
2021/12/11 00:22:12;;;;;;;24.12;20.20;;;;;;;7.28;100.00;101464.16;1712735;83;26600;-84
2021/12/11 00:24:41;;;;;;;23.90;21.02;;;;;;;7.26;100.00;101462.48;1711072;82;21090;-85
2021/12/11 00:27:13;;;;;;;25.65;20.37;;;;;;;7.27;100.00;101460.74;1685975;83;21908;-83
2021/12/11 00:29:42;;;;;;;25.65;19.90;;;;;;;7.29;100.00;101452.89;1707316;82;21070;-83
2021/12/11 00:32:14;;;;;;;25.17;19.82;;;;;;;7.27;100.00;101445.20;1707829;84;21464;-84
2021/12/11 00:34:43;;;;;;;21.80;18.05;;;;;;;7.25;100.00;101450.91;1693563;81;21099;-84
2021/12/11 00:37:14;;;;;;;24.25;19.80;;;;;;;7.23;100.00;101450.98;1728958;82;21826;-85
2021/12/11 00:39:58;;;;;;;23.10;20.25;;;;;;;7.21;100.00;101446.80;1717464;83;21122;-83
2021/12/11 00:42:33;;;;;;;24.25;20.92;;;;;;;7.20;100.00;101450.30;1709727;82;21096;-84
2021/12/11 00:44:56;;;;;;;24.35;19.90;;;;;;;7.21;100.00;101446.33;1710063;82;21060;-84
2021/12/11 00:47:29;;;;;;;24.00;20.43;;;;;;;7.22;100.00;101453.19;1699315;83;21006;-84
2021/12/11 00:50:02;;;;;;;24.32;20.62;;;;;;;7.22;100.00;101446.72;1698981;83;21558;-83
2021/12/11 00:52:34;;;;;;;28.02;21.62;;;;;;;7.21;100.00;101443.73;1711590;82;21157;-84
2021/12/11 00:55:06;;;;;;;28.90;21.90;;;;;;;7.23;100.00;101446.24;1711641;82;21117;-85
2021/12/11 00:57:34;;;;;;;28.27;22.22;;;;;;;7.22;100.00;101440.23;1709686;82;20983;-84
2021/12/11 01:00:13;;;;;;;27.30;21.55;;;;;;;7.19;100.00;101439.08;1712528;83;21012;-84
2021/12/11 01:02:40;;;;;;;25.25;21.48;;;;;;;7.17;100.00;101443.48;1711336;83;20986;-84
2021/12/11 01:05:11;;;;;;;27.42;20.62;;;;;;;7.16;100.00;101452.19;1712725;82;21913;-83
2021/12/11 01:07:38;;;;;;;23.90;19.80;;;;;;;7.15;100.00;101447.06;1699298;83;21002;-84
2021/12/11 01:10:14;;;;;;;25.55;18.90;;;;;;;7.13;100.00;101440.67;1712399;83;21491;-84
2021/12/11 01:12:52;;;;;;;27.82;21.25;;;;;;;7.12;100.00;101448.52;1709609;82;21064;-84
2021/12/11 01:15:25;;;;;;;29.75;21.77;;;;;;;7.11;100.00;101438.59;1699986;83;21064;-84
2021/12/11 01:18:21;;;;;;;30.55;23.10;;;;;;;7.10;100.00;101439.50;1711120;82;21789;-83
2021/12/11 01:20:36;;;;;;;30.85;23.10;;;;;;;7.08;100.00;101433.12;1713960;82;21054;-85
2021/12/11 01:23:27;;;;;;;30.15;23.10;;;;;;;7.10;100.00;101444.69;1697148;83;21057;-84
2021/12/11 01:25:36;;;;;;;30.32;22.48;;;;;;;7.10;100.00;101436.92;1707948;82;21566;-84
2021/12/11 01:28:04;;;;;;;29.23;22.30;;;;;;;7.06;100.00;101437.52;1716151;82;21028;-84
2021/12/11 01:30:38;;;;;;;25.82;21.95;;;;;;;7.03;100.00;101434.23;1716622;83;21178;-84
2021/12/11 01:33:09;;;;;;;31.55;21.68;;;;;;;7.05;100.00;101441.48;1714268;81;21026;-85
2021/12/11 01:35:36;;;;;;;28.60;21.30;;;;;;;7.07;100.00;101445.67;1721198;81;21682;-84
2021/12/11 01:38:18;;;;;;;27.13;20.65;;;;;;;7.09;100.00;101449.52;1732275;82;21034;-84
2021/12/11 01:40:48;;;;;;;27.60;20.88;;;;;;;7.08;100.00;101429.70;1731319;81;20999;-83
2021/12/11 01:43:16;;;;;;;27.10;20.40;;;;;;;7.08;100.00;101437.00;1732510;82;21090;-84
2021/12/11 01:45:48;;;;;;;26.07;20.68;;;;;;;7.05;100.00;101433.25;1732551;82;22032;-84
2021/12/11 01:48:21;;;;;;;;;;;;;;;7.03;100.00;101434.23;1710575;83;21516;-85
2021/12/11 01:50:56;;;;;;;24.55;19.48;;;;;;;6.99;100.00;101432.25;1702788;83;20130;-84
2021/12/11 01:53:28;;;;;;;28.17;19.90;;;;;;;6.95;100.00;101435.44;1732489;82;21066;-85
2021/12/11 01:56:03;;;;;;;23.65;18.90;;;;;;;6.92;100.00;101433.02;1733584;82;21144;-85
2021/12/11 01:58:36;;;;;;;24.15;18.52;;;;;;;6.89;100.00;101427.97;1737275;82;21074;-85
2021/12/11 02:01:21;;;;;;;26.45;19.27;;;;;;;6.86;100.00;101429.86;1730200;82;21031;-83
2021/12/11 02:03:52;;;;;;;26.45;18.17;;;;;;;6.80;100.00;101421.91;1732875;82;21061;-84
2021/12/11 02:06:19;;;;;;;;;;;;;;;6.77;100.00;101424.66;1736569;81;21025;-84
2021/12/11 02:08:46;;;;;;;22.17;16.40;;;;;;;6.74;100.00;101423.50;1737134;81;21109;-84
2021/12/11 02:11:18;;;;;;;22.93;17.75;;;;;;;6.70;100.00;101425.39;1736753;81;21057;-84
2021/12/11 02:13:52;;;;;;;23.87;18.40;;;;;;;6.67;100.00;101424.70;1737975;82;21149;-84
2021/12/11 02:16:38;;;;;;;26.15;18.30;;;;;;;6.62;100.00;101422.31;1734196;81;21523;-84
2021/12/11 02:19:17;;;;;;;22.55;18.20;;;;;;;6.59;100.00;101423.30;1699953;83;21035;-84
2021/12/11 02:21:57;;;;;;;24.45;19.15;;;;;;;6.56;100.00;101427.30;1709620;83;21863;-84
2021/12/11 02:24:31;;;;;;;27.50;19.15;;;;;;;6.55;100.00;101432.09;1710998;82;21054;-83
2021/12/11 02:26:59;;;;;;;28.02;19.70;;;;;;;6.58;100.00;101431.11;1680772;84;20968;-84
2021/12/11 02:29:35;;;;;;;26.17;19.57;;;;;;;6.60;100.00;101437.92;1689314;83;21580;-83
2021/12/11 02:32:30;;;;;;;21.87;16.17;;;;;;;6.61;100.00;101427.10;1692146;82;21165;-84
2021/12/11 02:35:01;;;;;;;21.35;15.23;;;;;;;6.48;100.00;101424.22;1712440;82;21177;-83
2021/12/11 02:37:52;;;;;;;22.15;15.78;;;;;;;6.30;100.00;101425.42;1686317;83;21103;-83
2021/12/11 02:40:51;;;;;;;22.30;15.88;;;;;;;6.19;100.00;101419.90;1720982;82;21085;-84
2021/12/11 02:43:45;;;;;;;25.08;16.45;;;;;;;6.10;100.00;101424.17;1693401;83;21106;-82
2021/12/11 02:46:24;;;;;;;30.68;19.67;;;;;;;6.08;100.00;101438.91;1717131;82;21014;-82
2021/12/11 02:49:11;;;;;;;28.10;21.00;;;;;;;6.06;100.00;101439.42;1684633;81;21227;-81
2021/12/11 02:51:47;;;;;;;34.25;23.45;;;;;;;6.07;100.00;101448.86;1718005;81;21707;-81
2021/12/11 02:54:19;;;;;;;33.78;22.45;;;;;;;6.08;100.00;101444.94;1720856;82;20982;-82
2021/12/11 02:56:54;;;;;;;38.67;22.10;;;;;;;6.07;100.00;101450.16;1693412;83;21503;-82
2021/12/11 02:59:26;;;;;;;40.00;22.40;;;;;;;6.04;100.00;101442.55;1683787;83;20957;-82
2021/12/11 03:02:09;;;;;;;32.03;22.70;;;;;;;6.00;100.00;101449.13;1698523;82;21503;-81
2021/12/11 03:04:45;;;;;;;26.93;19.15;;;;;;;5.98;100.00;101446.20;1718247;82;21101;-81
2021/12/11 03:07:09;;;;;;;28.32;17.60;;;;;;;5.92;100.00;101451.17;1713979;82;21120;-83
2021/12/11 03:09:42;;;;;;;34.10;16.12;;;;;;;5.83;100.00;101447.67;1732854;80;21023;-82
2021/12/11 03:12:13;;;;;;;25.37;15.50;;;;;;;5.73;100.00;101445.93;1715472;82;21051;-82
2021/12/11 03:14:43;;;;;;;25.17;15.33;;;;;;;5.63;100.00;101441.61;1727855;81;21931;-83
2021/12/11 03:17:13;;;;;;;24.00;16.40;;;;;;;5.57;100.00;101443.59;1709907;82;21323;-81
2021/12/11 03:19:43;;;;;;;30.20;17.60;;;;;;;5.55;100.00;101444.95;1706395;83;21054;-80
2021/12/11 03:22:18;;;;;;;26.73;18.05;;;;;;;5.51;100.00;101440.36;1730263;82;21793;-81
2021/12/11 03:24:45;;;;;;;31.97;20.85;;;;;;;5.52;100.00;101447.65;1704934;82;21525;-82
2021/12/11 03:27:13;;;;;;;30.05;18.85;;;;;;;5.48;100.00;101446.94;1708051;82;21025;-81
2021/12/11 03:29:41;;;;;;;35.40;20.92;;;;;;;5.46;100.00;101442.27;1742768;82;21086;-81
2021/12/11 03:32:12;;;;;;;30.72;19.65;;;;;;;5.41;100.00;101439.05;1732510;82;21821;-81
2021/12/11 03:34:44;;;;;;;32.38;19.12;;;;;;;5.35;100.00;101422.51;1743500;82;21030;-81
2021/12/11 03:37:19;;;;;;;26.87;17.80;;;;;;;5.29;100.00;101440.37;1710852;82;21062;-82
2021/12/11 03:39:51;;;;;;;26.50;18.73;;;;;;;5.25;100.00;101442.67;1707804;84;21210;-82
2021/12/11 03:42:23;;;;;;;29.80;20.08;;;;;;;5.21;100.00;101438.08;1730024;82;21068;-84
2021/12/11 03:44:52;;;;;;;30.77;21.25;;;;;;;5.17;100.00;101439.55;1727955;82;21111;-82
2021/12/11 03:47:30;;;;;;;30.02;19.62;;;;;;;5.16;100.00;101443.06;1723688;81;21604;-82
2021/12/11 03:49:58;;;;;;;36.80;20.32;;;;;;;5.19;100.00;101442.48;1710061;83;21066;-83
2021/12/11 03:52:26;;;;;;;35.48;20.72;;;;;;;5.22;100.00;101449.27;1688054;83;21151;-82
2021/12/11 03:54:54;;;;;;;29.23;20.77;;;;;;;5.20;100.00;101439.01;1712708;83;21131;-82
2021/12/11 03:57:27;;;;;;;30.80;18.85;;;;;;;5.15;100.00;101443.96;1712422;81;21074;-83
2021/12/11 03:59:55;;;;;;;29.45;20.43;;;;;;;5.08;100.00;101446.39;1709667;83;21094;-83
2021/12/11 04:02:30;;;;;;;31.02;19.45;;;;;;;5.03;100.00;101451.27;1712119;83;21055;-82
2021/12/11 04:05:01;;;;;;;26.97;19.25;;;;;;;4.99;100.00;101450.15;1688137;83;21299;-81
2021/12/11 04:07:33;;;;;;;25.35;18.73;;;;;;;4.93;100.00;101453.80;1712171;83;21050;-83
2021/12/11 04:10:01;;;;;;;26.10;17.95;;;;;;;4.89;100.00;101444.50;1709793;83;22241;-83
2021/12/11 04:12:29;;;;;;;27.80;18.17;;;;;;;4.87;100.00;101435.97;1712682;81;21066;-82
2021/12/11 04:14:56;;;;;;;24.63;16.80;;;;;;;4.81;100.00;101445.24;1712342;83;21075;-82
2021/12/11 04:17:26;;;;;;;27.35;17.90;;;;;;;4.77;100.00;101447.10;1708821;81;21831;-82
2021/12/11 04:19:59;;;;;;;22.98;17.35;;;;;;;4.72;100.00;101447.27;1710919;82;21412;-82
2021/12/11 04:22:26;;;;;;;;;;;;;;;4.73;100.00;101435.20;1728200;82;21126;-83
2021/12/11 04:24:54;;;;;;;22.65;15.93;;;;;;;4.70;100.00;101441.31;1713979;82;20217;-83
2021/12/11 04:27:24;;;;;;;24.30;17.52;;;;;;;4.67;100.00;101443.17;1705065;82;21188;-83
2021/12/11 04:34:07;;;;;;;20.88;14.45;;;;;;;4.57;100.00;101416.42;1675791;84;21048;-84
2021/12/11 04:36:39;;;;;;;19.73;15.72;;;;;;;4.49;100.00;101442.11;1675817;85;21096;-85
2021/12/11 04:39:10;;;;;;;19.67;15.30;;;;;;;4.47;100.00;101435.73;1671362;84;21076;-83
2021/12/11 05:00:08;;;;;;;14.53;9.50;;;;;;;4.35;100.00;101434.44;1815266;79;21202;-85
2021/12/11 05:02:57;;;;;;;13.55;8.83;;;;;;;4.28;100.00;101419.23;1777480;79;20966;-83
2021/12/11 05:05:42;;;;;;;9.23;7.97;;;;;;;4.24;100.00;101418.06;1810685;79;21030;-84
2021/12/11 05:13:17;;;;;;;11.30;7.75;;;;;;;4.17;100.00;101433.33;1815742;78;21112;-83
2021/12/11 05:15:48;;;;;;;12.25;8.13;;;;;;;4.21;100.00;101439.22;1815623;78;21981;-83
2021/12/11 05:18:20;;;;;;;15.15;8.65;;;;;;;4.23;100.00;101443.45;1797929;79;26906;-83
2021/12/11 05:20:53;;;;;;;12.25;8.15;;;;;;;4.23;100.00;101433.14;1784823;79;21077;-82
2021/12/11 05:23:20;;;;;;;11.03;8.90;;;;;;;4.19;100.00;101430.27;1766951;79;21006;-82
2021/12/11 05:25:48;;;;;;;20.23;9.83;;;;;;;4.15;100.00;101435.58;1775789;79;21061;-82
2021/12/11 05:28:16;;;;;;;14.63;9.53;;;;;;;4.13;100.00;101423.21;1799308;78;20974;-82
2021/12/11 05:30:48;;;;;;;20.25;11.12;;;;;;;4.10;100.00;101437.88;1778708;78;21009;-82
2021/12/11 05:33:17;;;;;;;18.82;11.50;;;;;;;4.07;100.00;101421.22;1718491;82;21089;-83
2021/12/11 05:35:47;;;;;;;17.02;12.65;;;;;;;4.04;100.00;101423.92;1721156;81;21527;-82
2021/12/11 05:38:17;;;;;;;23.85;15.55;;;;;;;4.03;100.00;101434.27;1752700;81;21154;-84
2021/12/11 05:40:50;;;;;;;21.77;15.55;;;;;;;4.14;100.00;101432.59;1752202;81;20999;-82
2021/12/11 05:43:18;;;;;;;25.48;17.07;;;;;;;4.22;100.00;101425.44;1748859;81;21022;-83
2021/12/11 05:45:45;;;;;;;26.77;18.75;;;;;;;4.19;100.00;101432.02;1718992;81;21519;-82
2021/12/11 05:48:15;;;;;;;23.87;16.90;;;;;;;4.13;100.00;101426.62;1743831;81;21065;-84
2021/12/11 05:50:48;;;;;;;22.22;15.40;;;;;;;4.04;100.00;101420.06;1720636;81;21141;-82
2021/12/11 05:53:17;;;;;;;23.73;14.68;;;;;;;4.03;100.00;101422.23;1769577;80;21093;-83
2021/12/11 05:55:47;;;;;;;23.05;15.43;;;;;;;3.99;100.00;101432.24;1767106;80;21504;-82
2021/12/11 05:58:24;;;;;;;26.05;14.80;;;;;;;3.96;100.00;101433.66;1742445;81;21120;-82
2021/12/11 06:00:48;;;;;;;18.67;14.35;;;;;;;3.95;100.00;101437.95;1738883;82;21124;-80
2021/12/11 06:03:16;;;;;;;21.68;15.30;;;;;;;3.96;100.00;101432.37;1774717;79;21814;-82
2021/12/11 06:05:45;;;;;;;20.17;14.53;;;;;;;3.94;100.00;101454.77;1801601;79;21090;-82
2021/12/11 06:08:13;;;;;;;27.62;15.68;;;;;;;3.93;100.00;101467.25;1731795;82;21050;-82
2021/12/11 06:10:41;;;;;;;23.05;15.98;;;;;;;3.92;100.00;101462.98;1734807;82;21103;-82
2021/12/11 06:13:12;;;;;;;23.12;15.43;;;;;;;3.96;100.00;101469.73;1731431;82;21496;-82
2021/12/11 06:15:41;;;;;;;20.23;14.38;;;;;;;4.02;100.00;101457.92;1734596;82;21133;-82
2021/12/11 06:18:14;;;;;;;26.90;15.85;;;;;;;4.02;100.00;101478.55;1731593;82;21122;-83
2021/12/11 06:20:37;;;;;;;22.15;16.00;;;;;;;4.02;100.00;101475.97;1732197;81;21014;-83
2021/12/11 06:23:05;;;;;;;21.23;16.23;;;;;;;4.02;100.00;101482.41;1768250;81;21063;-83
2021/12/11 06:25:34;;;;;;;22.67;16.17;;;;;;;4.03;100.00;101469.06;1762328;79;21031;-83
2021/12/11 06:28:05;;;;;;;20.45;14.10;;;;;;;4.10;100.00;101473.11;1718619;80;21105;-82
2021/12/11 06:30:33;;;;;;;19.45;14.33;;;;;;;4.13;100.00;101476.88;1741148;81;21046;-83
2021/12/11 06:33:00;;;;;;;20.08;14.80;;;;;;;4.12;100.00;101464.06;1758625;81;21048;-82
2021/12/11 06:35:42;;;;;;;23.02;14.20;;;;;;;4.12;100.00;101475.66;1767609;80;21615;-82
2021/12/11 06:38:12;;;;;;;21.95;14.25;;;;;;;4.13;100.00;101478.17;1759524;80;21076;-83
2021/12/11 06:40:40;;;;;;;22.62;16.67;;;;;;;4.08;100.00;101472.34;1764140;80;21158;-82
2021/12/11 06:43:08;;;;;;;21.85;17.07;;;;;;;4.05;100.00;101468.57;1767676;81;21552;-83
2021/12/11 06:45:37;;;;;;;24.12;17.75;;;;;;;4.02;100.00;101483.70;1744083;81;21623;-82
2021/12/11 06:48:06;;;;;;;24.82;17.60;;;;;;;4.02;100.00;101489.28;1767663;81;21462;-82
2021/12/11 06:50:34;;;;;;;23.07;17.40;;;;;;;4.04;100.00;101492.66;1765600;80;21077;-82
2021/12/11 06:53:06;;;;;;;23.15;16.23;;;;;;;4.06;100.00;101496.86;1767777;80;21981;-81
2021/12/11 06:55:35;;;;;;;19.60;16.30;;;;;;;4.06;100.00;101494.75;1768563;80;21017;-80
2021/12/11 06:58:03;;;;;;;22.45;15.32;;;;;;;4.02;100.00;101483.70;1776286;80;21042;-82
2021/12/11 07:00:31;;;;;;;23.90;16.17;;;;;;;3.98;100.00;101494.16;1778915;80;21014;-83
2021/12/11 07:02:58;;;;;;;22.60;16.23;;;;;;;3.97;100.00;101504.06;1774874;80;21066;-83
2021/12/11 07:05:25;;;;;;;20.30;16.40;;;;;;;3.95;100.00;101502.38;1759542;80;21131;-83
2021/12/11 07:07:52;;;;;;;22.90;17.10;;;;;;;4.07;100.00;101504.99;1783306;79;21555;-83
2021/12/11 07:10:23;;;;;;;25.35;17.95;;;;;;;4.28;100.00;101503.88;1769561;80;21492;-83
2021/12/11 07:12:51;;;;;;;26.70;18.82;;;;;;;4.44;100.00;101502.06;1771558;79;21094;-84
2021/12/11 07:15:18;;;;;;;34.43;18.87;;;;;;;4.52;100.00;101483.29;1731656;82;21075;-81
2021/12/11 07:17:46;;;;;;;27.85;12.70;;;;;;;4.50;100.00;101500.55;1798441;79;21794;-82
2021/12/11 07:20:16;;;;;;;34.20;16.00;;;;;;;4.42;100.00;101494.36;1801605;79;21096;-82
2021/12/11 07:22:50;;;;;;;24.35;15.58;;;;;;;4.36;100.00;101503.60;1815374;79;21025;-82
2021/12/11 07:25:29;;;;;;;23.75;15.63;;;;;;;4.33;100.00;101499.41;1814635;79;21638;-83
2021/12/11 07:28:03;;;;;;;24.30;15.68;;;;;;;4.31;100.00;101499.06;1803234;79;21045;-82
2021/12/11 07:30:28;;;;;;;22.02;15.90;;;;;;;4.32;100.00;101504.63;1795921;79;21182;-83
2021/12/11 07:32:57;;;;;;;21.90;15.45;;;;;;;4.31;100.00;101503.76;1767106;79;21524;-81
2021/12/11 07:35:25;;;;;;;27.20;15.72;;;;;;;4.31;100.00;101514.08;1798761;79;22006;-82
2021/12/11 07:37:54;;;;;;;21.73;15.72;;;;;;;4.31;100.00;101518.41;1798805;79;21022;-82
2021/12/11 07:40:26;;;;;;;24.00;14.93;;;;;;;4.36;100.00;101530.69;1794066;79;21482;-82
2021/12/11 07:42:53;;;;;;;20.65;15.85;;;;;;;4.33;100.00;101526.48;1798351;79;21769;-83
2021/12/11 07:45:21;;;;;;;23.62;15.28;;;;;;;4.24;100.00;101513.89;1767325;79;21642;-83
2021/12/11 07:47:49;;;;;;;21.17;15.90;;;;;;;4.21;100.00;101526.88;1802803;79;21050;-83
2021/12/11 07:50:17;;;;;;;22.65;16.02;;;;;;;4.17;100.00;101525.31;1813630;79;21035;-82
2021/12/11 07:52:44;;;;;;;25.30;15.70;;;;;;;4.18;100.00;101509.78;1813416;78;21637;-82
2021/12/11 07:55:12;;;;;;;19.12;12.07;;;;;;;4.17;100.00;101518.87;1812485;78;21142;-82
2021/12/11 07:57:39;;;;;;;21.97;14.90;;;;;;;4.13;100.00;101502.66;1811982;78;21582;-81
2021/12/11 08:00:12;;;;;;;21.87;16.52;;;;;;;4.12;100.00;101505.30;1812446;78;21037;-82
2021/12/11 08:02:43;;;;;;;23.30;16.12;;;;;;;4.08;100.00;101513.59;1809705;78;21053;-83
2021/12/11 08:05:12;;;;;;;27.25;16.87;;;;;;;4.08;100.00;101524.72;1750562;79;21033;-83
2021/12/11 08:07:40;;;;;;;24.85;16.37;;;;;;;4.09;100.00;101515.24;1775837;79;21163;-83
2021/12/11 08:10:13;;;;;;;24.63;17.00;;;;;;;4.08;100.00;101507.14;1812243;78;21071;-83
2021/12/11 08:12:40;;;;;;;25.60;16.60;;;;;;;4.08;100.00;101514.87;1779311;79;21088;-83
2021/12/11 08:15:11;;;;;;;24.10;15.38;;;;;;;4.07;100.00;101519.17;1812118;78;21002;-83
2021/12/11 08:17:38;;;;;;;20.55;15.55;;;;;;;4.05;100.00;101505.48;1780898;78;21006;-81
2021/12/11 08:20:10;;;;;;;22.32;13.75;;;;;;;4.04;100.00;101508.13;1811687;78;21127;-80
2021/12/11 08:22:37;;;;;;;24.87;14.93;;;;;;;4.00;100.00;101503.52;1755745;79;21045;-83
2021/12/11 08:25:19;;;;;;;22.27;15.90;;;;;;;4.02;100.00;101506.89;1791091;78;21112;-84
2021/12/11 08:27:48;;;;;;;21.97;14.30;;;;;;;4.07;100.00;101510.15;1774962;80;21473;-83
2021/12/11 08:30:28;;;;;;;24.27;17.05;;;;;;;4.16;100.00;101510.30;1763201;79;21046;-84
2021/12/11 08:33:00;;;;;;;23.00;17.30;;;;;;;4.23;100.00;101507.05;1759093;79;22759;-81
2021/12/11 08:35:28;;;;;;;24.20;16.67;;;;;;;4.27;100.00;101518.95;1697246;81;21030;-82
2021/12/11 08:37:56;;;;;;;22.67;17.02;;;;;;;4.33;100.00;101511.00;1731950;80;20971;-81
2021/12/11 08:40:30;;;;;;;25.08;14.73;;;;;;;4.36;100.00;101513.48;1729015;80;21480;-82
2021/12/11 08:43:02;;;;;;;22.85;15.32;;;;;;;4.33;100.00;101507.14;1772483;79;21022;-81
2021/12/11 08:45:45;;;;;;;22.30;15.28;;;;;;;4.26;100.00;101504.37;1766662;79;21076;-83
2021/12/11 08:48:00;;;;;;;21.75;15.55;;;;;;;4.19;100.00;101500.33;1777221;79;21090;-82
2021/12/11 08:50:33;;;;;;;20.35;15.78;;;;;;;4.13;100.00;101491.52;1794920;78;21064;-82
2021/12/11 08:53:03;;;;;;;22.82;15.90;;;;;;;4.10;100.00;101493.73;1784891;79;21480;-81
2021/12/11 08:55:36;;;;;;;22.05;14.70;;;;;;;4.09;100.00;101514.81;1779974;79;21013;-82
2021/12/11 08:58:07;;;;;;;21.62;15.05;;;;;;;4.14;100.00;101512.52;1779619;80;21170;-83
2021/12/11 09:00:54;;;;;;;16.85;12.80;;;;;;;4.15;100.00;101503.89;1783710;79;21044;-82
2021/12/11 09:03:36;;;;;;;21.60;12.00;;;;;;;4.09;100.00;101492.91;1777416;78;21045;-81
2021/12/11 09:06:15;;;;;;;20.95;15.70;;;;;;;4.02;100.00;101484.98;1734252;79;21474;-81
2021/12/11 09:08:47;;;;;;;18.02;13.90;;;;;;;4.00;100.00;101467.44;1774796;79;21112;-81
2021/12/11 09:11:39;;;;;;;21.05;15.60;;;;;;;4.04;100.00;101454.85;1775489;79;21176;-82
2021/12/11 09:14:18;;;;;;;21.52;16.27;;;;;;;4.07;100.00;101451.33;1775199;79;21044;-82
2021/12/11 09:17:00;;;;;;;25.20;15.70;;;;;;;4.17;100.00;101445.39;1743940;80;21067;-81
2021/12/11 09:19:35;;;;;;;21.27;15.78;;;;;;;4.16;100.00;101451.02;1749556;80;21676;-81
2021/12/11 09:22:18;;;;;;;28.98;15.95;;;;;;;4.12;100.00;101458.44;1777496;78;21113;-82
2021/12/11 09:24:55;;;;;;;23.07;16.55;;;;;;;4.07;100.00;101445.70;1784976;78;21224;-82
2021/12/11 09:27:36;;;;;;;22.93;14.55;;;;;;;4.09;100.00;101453.38;1772764;79;21012;-81
2021/12/11 09:30:17;;;;;;;21.95;16.95;;;;;;;4.08;100.00;101450.44;1780387;78;20973;-81
2021/12/11 09:33:02;;;;;;;22.67;16.90;;;;;;;4.08;100.00;101440.95;1746783;80;21021;-81
2021/12/11 09:35:38;;;;;;;25.48;18.20;;;;;;;4.13;100.00;101460.13;1738473;80;21052;-83
2021/12/11 09:38:11;;;;;;;28.42;18.00;;;;;;;4.24;100.00;101476.08;1800441;78;21607;-82
2021/12/11 09:40:43;;;;;;;23.27;17.62;;;;;;;4.32;100.00;101466.77;1769144;78;21084;-81
2021/12/11 09:43:34;;;;;;;23.10;17.15;;;;;;;4.35;100.00;101460.66;1781214;79;21557;-83
2021/12/11 09:46:07;;;;;;;43.35;18.42;;;;;;;4.31;100.00;101468.95;1722610;78;21025;-82
2021/12/11 09:48:37;;;;;;;22.87;16.73;;;;;;;4.29;100.00;101476.34;1760392;79;21044;-81
2021/12/11 09:51:09;;;;;;;24.00;16.95;;;;;;;4.29;100.00;101469.44;1765903;79;21882;-81
2021/12/11 09:53:38;;;;;;;21.52;14.87;;;;;;;4.31;100.00;101479.72;1769473;79;21052;-80
2021/12/11 09:56:10;;;;;;;20.52;15.65;;;;;;;4.32;100.00;101468.52;1733775;79;21068;-82
2021/12/11 09:58:39;;;;;;;17.70;12.75;;;;;;;4.31;100.00;101483.12;1775467;80;21102;-80
2021/12/11 10:01:18;;;;;;;22.27;16.60;;;;;;;4.28;100.00;101481.97;1738896;80;21161;-82
2021/12/11 10:03:57;;;;;;;24.12;16.80;;;;;;;4.26;100.00;101493.61;1708891;82;21788;-81
2021/12/11 10:06:42;;;;;;;28.25;19.90;;;;;;;4.21;100.00;101485.63;1704720;81;21077;-81
2021/12/11 10:09:18;;;;;;;25.68;17.50;;;;;;;4.20;100.00;101493.82;1785901;79;21140;-79
2021/12/11 10:11:51;;;;;;;27.87;16.48;;;;;;;4.18;100.00;101496.89;1728370;79;21043;-80
2021/12/11 10:14:23;;;;;;;24.40;16.80;;;;;;;4.20;100.00;101496.86;1805920;78;21643;-82
2021/12/11 10:16:56;;;;;;;24.90;16.62;;;;;;;4.23;100.00;101510.91;1789920;79;22264;-80
2021/12/11 10:19:29;;;;;;;22.65;17.17;;;;;;;4.21;100.00;101521.72;1809644;78;21035;-81
2021/12/11 10:22:04;;;;;;;29.55;18.57;;;;;;;4.18;100.00;101520.09;1790162;78;21582;-81
2021/12/11 10:24:34;;;;;;;22.60;18.05;;;;;;;4.19;100.00;101534.67;1791296;79;21000;-81
2021/12/11 10:27:05;;;;;;;24.43;17.57;;;;;;;4.22;100.00;101529.86;1790726;79;21587;-81
2021/12/11 10:29:35;;;;;;;24.32;17.17;;;;;;;4.23;100.00;101540.56;1758720;80;21966;-81
2021/12/11 10:32:08;;;;;;;24.37;17.87;;;;;;;4.21;100.00;101521.72;1776916;80;21035;-80
2021/12/11 10:34:40;;;;;;;26.77;17.35;;;;;;;4.17;100.00;101524.85;1756309;80;21075;-82
2021/12/11 10:37:12;;;;;;;22.27;15.70;;;;;;;4.14;100.00;101517.67;1716114;80;21042;-82
2021/12/11 10:39:45;;;;;;;26.23;16.40;;;;;;;4.10;100.00;101516.93;1764729;79;21062;-89
2021/12/11 10:42:13;;;;;;;25.05;15.48;;;;;;;4.12;100.00;101502.27;1763377;80;21803;-82
2021/12/11 10:44:45;;;;;;;24.02;16.00;;;;;;;4.17;100.00;101492.62;1755256;78;20991;-82
2021/12/11 10:47:26;;;;;;;23.67;15.03;;;;;;;4.20;100.00;101500.73;1702434;82;21124;-83
2021/12/11 10:49:55;;;;;;;20.17;15.85;;;;;;;4.16;100.00;101506.44;1773740;79;21086;-81
2021/12/11 10:52:30;;;;;;;48.20;17.02;;;;;;;4.17;100.00;101513.25;1763373;80;21541;-81
2021/12/11 10:55:03;;;;;;;39.42;17.98;;;;;;;4.17;100.00;101511.13;1777142;79;21856;-79
2021/12/11 10:57:32;;;;;;;40.30;18.30;;;;;;;4.16;100.00;101516.75;1728009;80;21526;-87
2021/12/11 11:00:05;;;;;;;28.05;17.75;;;;;;;4.15;100.00;101515.06;1743189;79;21539;-80
2021/12/11 11:02:43;;;;;;;30.25;19.07;;;;;;;4.13;100.00;101513.44;1775884;80;20968;-81
2021/12/11 11:05:16;;;;;;;29.55;18.73;;;;;;;4.15;100.00;101513.77;1753318;80;21646;-83
2021/12/11 11:07:44;;;;;;;32.28;19.48;;;;;;;4.16;100.00;101517.17;1753688;80;21419;-82
2021/12/11 11:10:17;;;;;;;26.33;18.70;;;;;;;4.16;100.00;101524.91;1776608;79;20998;-80
2021/12/11 11:12:44;;;;;;;30.82;18.10;;;;;;;4.14;100.00;101531.84;1745622;80;21076;-80
2021/12/11 11:15:14;;;;;;;28.12;17.60;;;;;;;4.09;100.00;101543.17;1778292;79;21025;-80
2021/12/11 11:17:41;;;;;;;28.00;19.10;;;;;;;4.04;100.00;101555.37;1775152;79;21563;-83
2021/12/11 11:20:28;;;;;;;25.97;18.67;;;;;;;4.01;100.00;101558.05;1786466;78;21217;-84
2021/12/11 11:22:59;;;;;;;25.97;18.80;;;;;;;4.03;100.00;101556.27;1778371;79;21075;-81
2021/12/11 11:25:31;;;;;;;26.90;18.77;;;;;;;4.07;100.00;101544.95;1764106;79;21101;-80
2021/12/11 11:28:04;;;;;;;24.18;17.07;;;;;;;4.08;100.00;101550.50;1770356;79;21120;-81
2021/12/11 11:30:41;;;;;;;30.37;19.50;;;;;;;4.02;100.00;101565.31;1740797;80;21573;-81
2021/12/11 11:33:12;;;;;;;29.30;19.77;;;;;;;4.03;100.00;101571.73;1764622;80;21050;-81
2021/12/11 11:35:43;;;;;;;29.65;21.27;;;;;;;4.19;100.00;101583.66;1772276;80;21064;-81
2021/12/11 11:38:19;;;;;;;44.60;22.93;;;;;;;4.28;100.00;101585.11;1769552;79;21018;-81
2021/12/11 11:40:50;;;;;;;31.77;22.22;;;;;;;4.28;100.00;101594.13;1772627;79;21094;-83
2021/12/11 11:43:18;;;;;;;31.23;22.65;;;;;;;4.34;100.00;101592.63;1774364;79;21085;-81
2021/12/11 11:45:52;;;;;;;33.50;21.87;;;;;;;4.34;100.00;101596.50;1753446;79;21736;-82
2021/12/11 12:02:55;;;;;;;24.50;18.05;;;;;;;4.06;100.00;101578.52;1819371;77;22676;-82
2021/12/11 12:05:26;;;;;;;27.58;17.73;;;;;;;4.02;100.00;101576.48;1794448;79;21040;-82
2021/12/11 12:07:53;;;;;;;23.95;17.25;;;;;;;3.99;100.00;101582.19;1693672;83;21064;-80
2021/12/11 12:10:25;;;;;;;26.87;18.17;;;;;;;3.97;100.00;101586.54;1684106;84;21872;-80
2021/12/11 12:12:54;;;;;;;21.95;15.63;;;;;;;3.94;100.00;101595.22;1691143;83;21055;-81
2021/12/11 12:15:29;;;;;;;24.15;16.82;;;;;;;3.91;100.00;101606.90;1757744;79;20991;-80
2021/12/11 12:17:59;;;;;;;21.75;15.25;;;;;;;3.88;100.00;101602.69;1781874;79;20967;-79